createdAt,value
2019-01-23T00:01:29.083Z,50.20
2019-01-23T00:03:58.112Z,50.30
2019-01-23T00:06:26.031Z,50.30
2019-01-23T00:08:54.273Z,50.00
2019-01-23T00:12:49.175Z,50.50
2019-01-23T00:14:34.322Z,50.30
2019-01-23T00:17:02.222Z,50.20
2019-01-23T00:19:30.136Z,50.30
2019-01-23T00:21:58.007Z,50.10
2019-01-23T00:24:25.884Z,50.20
2019-01-23T00:26:53.862Z,50.90
2019-01-23T00:29:21.695Z,50.70
2019-01-23T00:31:49.599Z,51.00
2019-01-23T00:34:17.476Z,50.70
2019-01-23T00:36:45.350Z,50.40
2019-01-23T00:39:13.247Z,50.10
2019-01-23T00:41:41.171Z,49.70
2019-01-23T00:44:09.123Z,49.50
2019-01-23T00:46:38.166Z,50.00
2019-01-23T00:49:06.202Z,49.90
2019-01-23T00:51:34.071Z,50.50
2019-01-23T00:54:02.436Z,50.20
2019-01-23T00:56:30.323Z,50.40
2019-01-23T00:58:58.238Z,50.10
2019-01-23T01:01:26.135Z,49.80
2019-01-23T01:03:54.104Z,50.00
2019-01-23T01:06:22.012Z,49.40
2019-01-23T01:08:49.909Z,49.80
2019-01-23T01:11:17.775Z,49.80
2019-01-23T01:13:45.728Z,49.20
2019-01-23T01:16:13.754Z,48.90
2019-01-23T01:18:41.643Z,49.50
2019-01-23T01:21:09.548Z,49.80
2019-01-23T01:23:37.548Z,49.00
2019-01-23T01:26:05.617Z,49.20
2019-01-23T01:28:33.545Z,49.40
2019-01-23T01:31:03.511Z,50.10
2019-01-23T01:33:44.343Z,49.40
2019-01-23T01:36:31.819Z,48.60
2019-01-23T01:39:12.891Z,50.20
2019-01-23T01:42:00.245Z,49.70
2019-01-23T01:44:40.372Z,50.60
2019-01-23T01:47:27.754Z,50.20
2019-01-23T01:50:09.850Z,50.70
2019-01-23T01:52:57.227Z,50.10
2019-01-23T01:55:25.146Z,50.40
2019-01-23T01:58:12.463Z,50.10
2019-01-23T02:00:53.625Z,50.00
2019-01-23T02:03:41.170Z,51.00
2019-01-23T02:06:21.385Z,50.00
2019-01-23T02:09:08.776Z,49.20
2019-01-23T02:11:49.579Z,49.30
2019-01-23T02:14:17.524Z,49.40
2019-01-23T02:16:58.978Z,49.10
2019-01-23T02:19:46.376Z,49.30
2019-01-23T02:22:14.273Z,49.10
2019-01-23T02:25:01.710Z,49.30
2019-01-23T02:27:42.919Z,49.00
2019-01-23T02:30:12.418Z,48.50
2019-01-23T02:32:40.317Z,49.20
2019-01-23T02:35:08.679Z,48.60
2019-01-23T02:37:56.026Z,48.40
2019-01-23T02:40:36.988Z,48.40
2019-01-23T02:43:04.802Z,49.10
2019-01-23T02:45:32.689Z,49.30
2019-01-23T02:48:20.036Z,48.40
2019-01-23T02:50:47.870Z,48.20
2019-01-23T02:53:15.755Z,47.90
2019-01-23T02:56:00.188Z,48.20
2019-01-23T02:58:47.551Z,48.00
2019-01-23T03:01:32.712Z,48.40
2019-01-23T03:04:13.273Z,48.10
2019-01-23T03:06:54.435Z,48.10
2019-01-23T03:09:22.289Z,47.80
2019-01-23T03:12:02.408Z,48.10
2019-01-23T03:14:49.807Z,49.00
2019-01-23T03:17:30.569Z,48.90
2019-01-23T03:20:14.022Z,50.20
2019-01-23T03:23:01.372Z,50.40
2019-01-23T03:25:41.949Z,50.40
2019-01-23T03:28:23.883Z,49.70
2019-01-23T03:31:12.138Z,49.70
2019-01-23T03:33:40.075Z,50.20
2019-01-23T03:36:07.979Z,49.50
2019-01-23T03:38:55.436Z,49.00
2019-01-23T03:41:25.626Z,48.70
2019-01-23T03:43:55.816Z,48.40
2019-01-23T03:46:36.632Z,48.60
2019-01-23T03:49:24.598Z,48.20
2019-01-23T03:52:05.551Z,48.90
2019-01-23T03:54:52.882Z,49.10
2019-01-23T03:57:20.927Z,48.50
2019-01-23T04:00:11.296Z,49.60
2019-01-23T04:02:52.096Z,49.30
2019-01-23T04:05:39.728Z,48.50
2019-01-23T04:08:20.466Z,48.40
2019-01-23T04:11:08.069Z,47.70
2019-01-23T04:13:48.817Z,47.80
2019-01-23T04:16:36.172Z,47.70
2019-01-23T04:19:16.444Z,47.80
2019-01-23T04:21:44.339Z,47.00
2019-01-23T04:24:25.323Z,47.20
2019-01-23T04:27:06.530Z,46.50
2019-01-23T04:29:54.159Z,47.20
2019-01-23T04:32:34.672Z,46.90
2019-01-23T04:35:22.016Z,46.80
2019-01-23T04:38:05.631Z,47.80
2019-01-23T04:40:52.954Z,47.00
2019-01-23T04:43:33.201Z,47.30
2019-01-23T04:46:20.538Z,47.10
2019-01-23T04:49:01.508Z,47.50
2019-01-23T04:51:59.471Z,47.90
2019-01-23T04:54:27.288Z,46.80
2019-01-23T04:56:55.209Z,46.90
2019-01-23T04:59:23.113Z,47.10
2019-01-23T05:02:10.482Z,47.30
2019-01-23T05:04:52.258Z,48.00
2019-01-23T05:07:39.646Z,48.10
2019-01-23T05:10:20.198Z,47.60
2019-01-23T05:13:01.191Z,47.90
2019-01-23T05:15:48.792Z,48.20
2019-01-23T05:18:29.351Z,48.70
2019-01-23T05:21:17.091Z,48.10
2019-01-23T05:23:57.967Z,49.30
2019-01-23T05:26:45.330Z,49.80
2019-01-23T05:29:13.241Z,48.60
2019-01-23T05:31:41.242Z,48.40
2019-01-23T05:34:23.361Z,49.00
2019-01-23T05:37:10.712Z,47.00
2019-01-23T05:39:51.990Z,47.80
2019-01-23T05:42:39.697Z,47.40
2019-01-23T05:45:28.629Z,47.70
2019-01-23T05:48:10.103Z,48.00
2019-01-23T05:50:50.452Z,47.00
2019-01-23T05:53:31.511Z,46.10
2019-01-23T05:56:19.080Z,45.70
2019-01-23T05:58:59.929Z,46.70
2019-01-23T06:01:47.420Z,46.00
2019-01-23T06:04:27.697Z,47.40
2019-01-23T06:07:15.045Z,46.90
2019-01-23T06:09:55.539Z,46.60
2019-01-23T06:12:42.868Z,45.70
2019-01-23T06:15:23.642Z,46.80
2019-01-23T06:18:11.194Z,47.30
2019-01-23T06:20:52.638Z,48.10
2019-01-23T06:23:20.574Z,46.70
2019-01-23T06:25:48.721Z,49.10
2019-01-23T06:28:30.683Z,49.50
2019-01-23T06:31:18.118Z,49.70
2019-01-23T06:33:46.035Z,50.20
2019-01-23T06:36:13.862Z,50.50
2019-01-23T06:38:55.642Z,50.90
2019-01-23T06:41:24.631Z,50.70
2019-01-23T06:44:04.866Z,50.30
2019-01-23T06:46:52.702Z,50.50
2019-01-23T06:49:33.375Z,50.60
2019-01-23T06:52:20.772Z,52.60
2019-01-23T06:55:01.809Z,53.30
2019-01-23T06:57:29.968Z,53.20
2019-01-23T06:59:57.896Z,53.60
2019-01-23T07:02:45.808Z,54.10
2019-01-23T07:05:13.782Z,54.30
2019-01-23T07:07:43.267Z,54.40
2019-01-23T07:10:15.320Z,54.70
2019-01-23T07:13:02.910Z,54.40
2019-01-23T07:15:43.142Z,53.80
2019-01-23T07:18:30.450Z,54.00
2019-01-23T07:21:11.628Z,54.00
2019-01-23T07:23:59.208Z,53.80
2019-01-23T07:26:40.552Z,54.40
2019-01-23T07:29:08.491Z,53.30
2019-01-23T07:31:36.414Z,53.40
2019-01-23T07:34:04.416Z,52.90
2019-01-23T07:36:52.036Z,52.70
2019-01-23T07:39:32.501Z,52.40
2019-01-23T07:42:19.903Z,52.20
2019-01-23T07:45:00.596Z,52.10
2019-01-23T07:47:47.951Z,52.50
2019-01-23T07:50:28.922Z,52.00
2019-01-23T07:52:56.904Z,52.00
2019-01-23T07:55:24.865Z,52.30
2019-01-23T07:58:12.531Z,52.30
2019-01-23T08:00:52.742Z,52.30
2019-01-23T08:03:20.792Z,51.10
2019-01-23T08:06:01.792Z,52.00
2019-01-23T08:08:29.868Z,51.80
2019-01-23T08:11:11.017Z,52.30
2019-01-23T08:13:59.478Z,52.30
2019-01-23T08:16:41.741Z,52.60
2019-01-23T08:19:29.230Z,52.40
2019-01-23T08:22:10.046Z,52.90
2019-01-23T08:24:38.105Z,52.70
2019-01-23T08:27:07.163Z,52.30
2019-01-23T08:29:35.535Z,51.80
2019-01-23T08:32:23.056Z,52.60
2019-01-23T08:34:51.018Z,52.60
2019-01-23T08:37:38.568Z,52.60
2019-01-23T08:40:10.312Z,52.60
2019-01-23T08:42:58.019Z,52.60
2019-01-23T08:45:39.087Z,52.70
2019-01-23T08:48:07.346Z,52.80
2019-01-23T08:50:48.036Z,53.30
2019-01-23T08:53:35.631Z,53.00
2019-01-23T08:56:22.845Z,52.90
2019-01-23T08:59:03.306Z,52.30
2019-01-23T09:01:52.788Z,58.50
2019-01-23T09:04:33.469Z,54.20
2019-01-23T09:07:20.961Z,52.60
2019-01-23T09:10:01.713Z,52.20
2019-01-23T09:12:49.153Z,56.10
2019-01-23T09:15:30.425Z,52.80
2019-01-23T09:18:17.957Z,53.60
2019-01-23T09:21:05.807Z,53.20
2019-01-23T09:23:46.674Z,54.30
2019-01-23T09:26:35.055Z,52.20
2019-01-23T09:29:16.076Z,52.40
2019-01-23T09:32:23.776Z,51.60
2019-01-23T09:35:30.088Z,51.50
2019-01-23T09:38:35.146Z,52.50
2019-01-23T09:41:35.693Z,50.30
2019-01-23T09:45:02.175Z,50.40
2019-01-23T09:47:46.467Z,50.20
2019-01-23T09:50:34.227Z,50.70
2019-01-23T09:53:31.918Z,51.40
2019-01-23T09:56:13.400Z,51.40
2019-01-23T09:59:02.656Z,51.40
2019-01-23T10:01:49.153Z,51.50
2019-01-23T10:04:17.155Z,52.20
2019-01-23T10:06:45.250Z,51.80
2019-01-23T10:09:13.346Z,51.80
2019-01-23T10:11:41.265Z,51.30
2019-01-23T10:14:09.364Z,51.70
2019-01-23T10:16:37.410Z,51.60
2019-01-23T10:19:05.417Z,51.70
2019-01-23T10:21:33.666Z,51.30
2019-01-23T10:24:21.205Z,51.00
2019-01-23T10:26:49.174Z,50.90
2019-01-23T10:29:17.113Z,50.70
2019-01-23T10:31:59.100Z,50.70
2019-01-23T10:34:27.007Z,50.30
2019-01-23T10:36:55.031Z,50.00
2019-01-23T10:39:22.982Z,50.30
2019-01-23T10:42:05.153Z,50.20
2019-01-23T10:44:52.539Z,51.10
2019-01-23T10:47:32.640Z,50.20
2019-01-23T10:50:00.660Z,50.60
2019-01-23T10:52:40.846Z,50.40
2019-01-23T10:55:28.328Z,51.00
2019-01-23T10:58:06.820Z,51.60
2019-01-23T11:00:54.730Z,51.60
2019-01-23T11:03:36.012Z,51.60
2019-01-23T11:06:23.524Z,51.80
2019-01-23T11:09:05.321Z,51.60
2019-01-23T11:11:52.908Z,51.60
2019-01-23T11:14:20.924Z,51.60
2019-01-23T11:17:08.359Z,51.80
2019-01-23T11:19:48.903Z,52.10
2019-01-23T11:22:36.363Z,51.80
2019-01-23T11:25:17.469Z,51.50
2019-01-23T11:28:04.922Z,50.80
2019-01-23T11:30:32.938Z,51.60
2019-01-23T11:33:20.316Z,51.70
2019-01-23T11:36:00.718Z,51.70
2019-01-23T11:38:48.627Z,51.60
2019-01-23T11:41:28.679Z,51.50
2019-01-23T11:44:17.246Z,51.80
2019-01-23T11:46:45.335Z,51.50
2019-01-23T11:49:32.880Z,51.60
2019-01-23T11:52:14.214Z,50.80
2019-01-23T11:55:01.642Z,51.60
2019-01-23T11:57:43.635Z,51.50
2019-01-23T12:03:47.935Z,51.60
2019-01-23T12:06:28.561Z,51.80
2019-01-23T12:09:10.586Z,51.00
2019-01-23T12:11:38.697Z,51.30
2019-01-23T12:14:19.686Z,51.00
2019-01-23T12:17:07.113Z,51.00
2019-01-23T12:19:47.924Z,50.90
2019-01-23T12:22:35.548Z,51.20
2019-01-23T12:25:16.202Z,52.30
2019-01-23T12:30:33.814Z,50.60
2019-01-23T12:33:21.262Z,51.50
2019-01-23T12:36:01.756Z,51.40
2019-01-23T12:38:44.404Z,52.50
2019-01-23T12:41:12.590Z,52.20
2019-01-23T12:43:40.674Z,51.90
2019-01-23T12:46:09.943Z,51.70
2019-01-23T12:48:38.020Z,51.50
2019-01-23T12:51:06.034Z,51.50
2019-01-23T12:53:34.113Z,51.60
2019-01-23T12:56:02.638Z,51.10
2019-01-23T12:58:50.524Z,50.30
2019-01-23T13:01:30.842Z,50.60
2019-01-23T13:04:11.117Z,51.40
2019-01-23T13:06:58.592Z,51.30
2019-01-23T13:09:39.219Z,51.50
2019-01-23T13:12:26.752Z,51.50
2019-01-23T13:15:08.771Z,51.50
2019-01-23T13:17:56.194Z,51.60
2019-01-23T13:20:36.873Z,51.40
2019-01-23T13:23:04.837Z,51.00
2019-01-23T13:25:45.995Z,50.90
2019-01-23T13:28:33.832Z,50.90
2019-01-23T13:31:15.059Z,51.00
2019-01-23T13:34:02.570Z,50.90
2019-01-23T13:36:43.746Z,51.10
2019-01-23T13:39:31.338Z,51.30
2019-01-23T13:42:12.632Z,50.90
2019-01-23T13:44:40.577Z,50.90
2019-01-23T13:47:08.781Z,50.70
2019-01-23T13:49:36.904Z,50.90
2019-01-23T13:52:05.017Z,50.90
2019-01-23T13:54:33.068Z,51.50
2019-01-23T13:57:15.368Z,52.00
2019-01-23T13:59:43.278Z,51.90
2019-01-23T14:02:12.615Z,52.00
2019-01-23T14:04:40.656Z,52.00
2019-01-23T14:07:09.353Z,52.10
2019-01-23T14:09:37.330Z,52.20
2019-01-23T14:12:24.838Z,52.30
2019-01-23T14:15:06.329Z,52.30
2019-01-23T14:17:53.720Z,52.20
2019-01-23T14:20:33.942Z,52.50
2019-01-23T14:23:02.413Z,52.50
2019-01-23T14:25:42.840Z,53.10
2019-01-23T14:28:10.861Z,52.40
2019-01-23T14:30:44.039Z,52.60
2019-01-23T14:33:31.558Z,52.80
2019-01-23T14:36:19.996Z,52.80
2019-01-23T14:38:49.385Z,53.10
2019-01-23T14:41:33.212Z,53.30
2019-01-23T14:44:21.135Z,53.20
2019-01-23T14:47:02.648Z,53.40
2019-01-23T14:49:33.954Z,53.50
2019-01-23T14:52:14.872Z,53.40
2019-01-23T14:55:02.307Z,53.50
2019-01-23T14:57:44.421Z,53.60
2019-01-23T15:00:19.610Z,53.70
2019-01-23T15:03:00.438Z,53.40
2019-01-23T15:05:49.794Z,53.40
2019-01-23T15:08:30.633Z,53.80
2019-01-23T15:10:58.624Z,54.60
2019-01-23T15:13:26.715Z,54.10
2019-01-23T15:15:54.664Z,53.70
2019-01-23T15:18:22.631Z,53.50
2019-01-23T15:21:10.375Z,53.40
2019-01-23T15:23:58.219Z,53.10
2019-01-23T15:26:39.355Z,53.30
2019-01-23T15:29:10.415Z,53.50
2019-01-23T15:31:51.356Z,53.20
2019-01-23T15:34:39.352Z,53.30
2019-01-23T15:37:19.928Z,53.40
2019-01-23T15:39:49.818Z,54.50
2019-01-23T15:42:34.455Z,53.80
2019-01-23T15:45:22.134Z,54.30
2019-01-23T15:48:16.685Z,53.40
2019-01-23T15:51:12.304Z,54.00
2019-01-23T15:53:40.592Z,53.90
2019-01-23T15:56:10.293Z,53.90
2019-01-23T16:04:14.585Z,51.00
2019-01-23T16:07:02.396Z,51.40
2019-01-23T16:09:43.503Z,51.20
2019-01-23T16:12:31.699Z,51.70
2019-01-23T16:15:12.535Z,51.10
2019-01-23T16:18:00.459Z,51.20
2019-01-23T16:20:29.643Z,50.70
2019-01-23T16:23:17.871Z,51.00
2019-01-23T16:25:58.616Z,50.10
2019-01-23T16:28:46.380Z,50.50
2019-01-23T16:31:29.411Z,49.70
2019-01-23T16:33:57.572Z,49.20
2019-01-23T16:36:25.734Z,49.30
2019-01-23T16:38:54.610Z,48.70
2019-01-23T16:41:23.301Z,48.40
2019-01-23T16:43:51.862Z,48.70
2019-01-23T16:46:42.932Z,47.50
2019-01-23T16:49:24.665Z,47.30
2019-01-23T16:54:43.034Z,47.70
2019-01-23T16:57:11.204Z,47.40
2019-01-23T16:59:39.645Z,47.50
2019-01-23T17:02:08.030Z,46.60
2019-01-23T17:04:56.175Z,47.30
2019-01-23T17:10:18.089Z,46.70
2019-01-23T17:13:05.794Z,47.00
2019-01-23T17:15:46.668Z,47.60
2019-01-23T17:18:34.463Z,46.20
2019-01-23T17:21:14.718Z,46.10
2019-01-23T17:24:04.110Z,46.30
2019-01-23T17:26:46.896Z,47.00
2019-01-23T17:29:15.386Z,47.20
2019-01-23T17:32:04.826Z,47.30
2019-01-23T17:34:47.015Z,46.80
2019-01-23T17:37:15.410Z,46.80
2019-01-23T17:39:43.695Z,47.20
2019-01-23T17:42:11.863Z,47.70
2019-01-23T17:44:59.862Z,47.30
2019-01-23T17:47:40.664Z,47.60
2019-01-23T17:50:13.764Z,47.30
2019-01-23T17:52:45.091Z,46.50
2019-01-23T17:55:34.497Z,46.30
2019-01-23T17:58:03.057Z,46.80
2019-01-23T18:00:57.486Z,46.90
2019-01-23T18:03:25.985Z,46.80
2019-01-23T18:05:54.101Z,46.90
2019-01-23T18:08:22.262Z,46.80
2019-01-23T18:11:10.871Z,47.10
2019-01-23T18:13:52.240Z,47.00
2019-01-23T18:16:40.495Z,46.50
2019-01-23T18:19:20.793Z,46.30
2019-01-23T18:22:08.679Z,47.00
2019-01-23T18:24:59.703Z,47.10
2019-01-23T18:27:28.516Z,47.40
2019-01-23T18:30:19.622Z,47.20
2019-01-23T18:33:01.043Z,47.70
2019-01-23T18:36:14.632Z,47.20
2019-01-23T18:39:27.391Z,47.60
2019-01-23T18:42:43.547Z,48.30
2019-01-23T18:46:08.353Z,46.90
2019-01-23T18:49:38.856Z,47.80
2019-01-23T18:52:20.104Z,47.60
2019-01-23T18:55:09.987Z,47.40
2019-01-23T18:57:50.990Z,47.60
2019-01-23T19:00:39.115Z,47.20
2019-01-23T19:03:20.036Z,47.10
2019-01-23T19:06:08.235Z,47.60
2019-01-23T19:08:36.335Z,46.80
2019-01-23T19:11:25.027Z,46.50
2019-01-23T19:14:05.725Z,47.10
2019-01-23T19:17:13.236Z,46.50
2019-01-23T19:19:54.997Z,47.40
2019-01-23T19:22:23.252Z,47.30
2019-01-23T19:24:51.647Z,48.60
2019-01-23T19:27:19.871Z,48.50
2019-01-23T19:30:08.922Z,48.50
2019-01-23T19:32:53.722Z,48.60
2019-01-23T19:35:39.138Z,48.60
2019-01-23T19:41:24.083Z,47.70
2019-01-23T19:44:07.512Z,48.40
2019-01-23T19:46:58.113Z,48.30
2019-01-23T19:49:39.823Z,48.00
2019-01-23T19:52:29.840Z,48.00
2019-01-23T19:55:00.789Z,49.30
2019-01-23T19:57:55.163Z,48.50
2019-01-23T20:00:41.154Z,48.50
2019-01-23T20:03:24.496Z,48.40
2019-01-23T20:06:16.608Z,47.80
2019-01-23T20:09:11.514Z,47.30
2019-01-23T20:14:38.787Z,46.90
2019-01-23T20:17:10.230Z,46.50
2019-01-23T20:19:40.702Z,47.00
2019-01-23T20:22:09.523Z,46.10
2019-01-23T20:25:00.339Z,46.60
2019-01-23T20:27:33.878Z,45.90
2019-01-23T20:30:04.742Z,46.00
2019-01-23T20:32:37.384Z,46.50
2019-01-23T20:35:48.766Z,47.80
2019-01-23T20:38:16.498Z,46.70
2019-01-23T20:53:05.029Z,46.80
2019-01-23T20:55:35.935Z,45.70
2019-01-23T20:58:25.793Z,45.70
2019-01-23T21:00:57.048Z,45.10
2019-01-23T21:03:26.615Z,47.10
2019-01-23T21:05:58.360Z,46.00
2019-01-23T21:08:29.054Z,46.10
2019-01-23T21:11:03.464Z,46.00
2019-01-23T21:16:34.826Z,46.30
2019-01-23T21:22:49.872Z,45.40
2019-01-23T21:25:47.949Z,45.80
2019-01-23T21:28:29.981Z,44.70
2019-01-23T21:30:58.413Z,45.70
2019-01-23T21:33:27.644Z,46.80
2019-01-23T21:35:56.136Z,46.10
2019-01-23T21:38:38.094Z,46.70
2019-01-23T21:44:34.201Z,45.40
2019-01-23T21:47:25.519Z,46.50
2019-01-23T21:50:07.696Z,45.50
2019-01-23T21:55:40.351Z,45.50
2019-01-23T21:58:08.982Z,47.10
2019-01-23T22:01:00.820Z,47.10
2019-01-23T22:03:29.137Z,46.30
2019-01-23T22:06:00.502Z,46.40
2019-01-23T22:08:30.215Z,46.10
2019-01-23T22:11:17.919Z,46.30
2019-01-23T22:13:58.532Z,46.60
2019-01-23T22:16:46.108Z,46.30
2019-01-23T22:19:27.252Z,46.30
2019-01-23T22:22:14.933Z,45.70
2019-01-23T22:24:55.918Z,46.40
2019-01-23T22:27:48.506Z,45.50
2019-01-23T22:30:49.357Z,45.70
2019-01-23T22:33:17.332Z,45.30
2019-01-23T22:36:00.501Z,45.00
2019-01-23T22:38:48.546Z,45.30
2019-01-23T22:41:29.948Z,44.80
2019-01-23T22:44:39.365Z,44.70
2019-01-23T22:47:20.221Z,44.40
2019-01-23T22:50:10.873Z,44.50
2019-01-23T22:52:53.963Z,45.60
2019-01-23T22:55:41.860Z,45.10
2019-01-23T23:01:28.992Z,45.20
2019-01-23T23:08:08.037Z,45.90
2019-01-23T23:11:00.628Z,44.60
2019-01-23T23:17:06.422Z,44.80
2019-01-23T23:19:53.423Z,45.60
2019-01-23T23:22:41.225Z,45.50
2019-01-23T23:25:27.324Z,46.00
2019-01-23T23:27:57.808Z,46.30
2019-01-23T23:30:42.872Z,46.40
2019-01-23T23:33:10.925Z,46.90
2019-01-23T23:36:39.771Z,47.70
2019-01-23T23:39:17.273Z,47.10
2019-01-23T23:41:45.527Z,47.50
2019-01-23T23:44:13.701Z,47.80
2019-01-23T23:46:44.787Z,48.70
2019-01-23T23:49:13.019Z,48.60
2019-01-23T23:51:44.634Z,50.10
2019-01-23T23:57:23.731Z,49.40
